createdAt,value
2022-11-20T00:01:22.045Z,79.95
2022-11-20T00:03:52.660Z,79.17
2022-11-20T00:06:23.097Z,79.02
2022-11-20T00:08:55.914Z,79.31
2022-11-20T00:11:27.456Z,79.65
2022-11-20T00:13:59.237Z,78.59
2022-11-20T00:16:30.236Z,79.47
2022-11-20T00:18:59.232Z,79.69
2022-11-20T00:21:30.313Z,79.77
2022-11-20T00:24:01.278Z,79.00
2022-11-20T00:26:31.365Z,78.97
2022-11-20T00:29:03.441Z,78.32
2022-11-20T00:31:34.534Z,79.19
2022-11-20T00:34:03.699Z,79.29
2022-11-20T00:36:36.332Z,79.77
2022-11-20T00:39:06.795Z,79.54
2022-11-20T00:41:36.424Z,78.43
2022-11-20T00:44:05.581Z,79.80
2022-11-20T00:46:35.150Z,78.57
2022-11-20T00:49:04.379Z,79.16
2022-11-20T00:51:33.770Z,78.77
2022-11-20T00:54:03.160Z,79.62
2022-11-20T00:56:33.912Z,78.70
2022-11-20T00:59:03.629Z,78.76
2022-11-20T01:01:33.310Z,77.86
2022-11-20T01:04:03.058Z,78.48
2022-11-20T01:06:34.528Z,78.73
2022-11-20T01:09:06.706Z,78.66
2022-11-20T01:11:39.885Z,78.01
2022-11-20T01:14:12.185Z,78.13
2022-11-20T01:16:43.672Z,77.32
2022-11-20T01:19:17.748Z,78.02
2022-11-20T01:21:49.981Z,77.22
2022-11-20T01:24:20.925Z,77.54
2022-11-20T01:26:53.203Z,77.05
2022-11-20T01:29:24.864Z,77.12
2022-11-20T01:31:54.738Z,76.98
2022-11-20T01:34:24.668Z,77.04
2022-11-20T01:36:55.156Z,77.51
2022-11-20T01:39:25.732Z,78.29
2022-11-20T01:42:15.076Z,77.08
2022-11-20T01:44:52.524Z,76.71
2022-11-20T01:47:30.820Z,76.92
2022-11-20T01:50:03.930Z,77.24
2022-11-20T01:52:38.646Z,77.23
2022-11-20T01:55:11.452Z,76.90
2022-11-20T01:57:43.241Z,77.24
2022-11-20T02:00:17.631Z,76.80
2022-11-20T02:02:50.237Z,76.81
2022-11-20T02:05:25.781Z,77.33
2022-11-20T02:07:56.499Z,76.46
2022-11-20T02:10:25.948Z,76.66
2022-11-20T02:13:14.123Z,76.45
2022-11-20T02:15:43.694Z,77.06
2022-11-20T02:18:15.946Z,77.60
2022-11-20T02:20:47.507Z,78.02
2022-11-20T02:23:26.401Z,78.32
2022-11-20T02:25:58.013Z,78.30
2022-11-20T02:28:27.454Z,77.93
2022-11-20T02:30:56.524Z,77.29
2022-11-20T02:33:27.042Z,78.65
2022-11-20T02:35:56.135Z,77.57
2022-11-20T02:38:25.508Z,77.41
2022-11-20T02:40:56.104Z,77.15
2022-11-20T02:43:25.746Z,77.21
2022-11-20T02:45:54.764Z,77.35
2022-11-20T02:48:25.354Z,77.76
2022-11-20T02:50:54.474Z,77.58
2022-11-20T02:53:23.891Z,78.41
2022-11-20T02:55:53.146Z,77.47
2022-11-20T02:58:24.030Z,76.95
2022-11-20T03:00:54.425Z,77.50
2022-11-20T03:03:23.812Z,77.59
2022-11-20T03:05:53.088Z,77.38
2022-11-20T03:08:22.440Z,77.57
2022-11-20T03:10:51.468Z,78.21
2022-11-20T03:13:21.016Z,77.94
2022-11-20T03:15:51.484Z,76.86
2022-11-20T03:18:20.943Z,77.78
2022-11-20T03:20:50.085Z,77.88
2022-11-20T03:23:19.447Z,77.59
2022-11-20T03:25:48.429Z,77.38
2022-11-20T03:28:17.777Z,78.23
2022-11-20T03:36:06.696Z,76.94
2022-11-20T03:38:36.494Z,78.04
2022-11-20T03:41:07.476Z,77.22
2022-11-20T03:43:37.437Z,77.11
2022-11-20T03:46:06.745Z,77.82
2022-11-20T03:48:36.355Z,77.16
2022-11-20T03:51:15.645Z,76.23
2022-11-20T03:53:46.409Z,76.12
2022-11-20T03:56:17.534Z,77.99
2022-11-20T03:58:47.109Z,78.12
2022-11-20T04:01:18.612Z,79.15
2022-11-20T04:03:48.812Z,79.34
2022-11-20T04:06:21.257Z,78.09
2022-11-20T04:08:53.771Z,78.21
2022-11-20T04:11:25.022Z,79.57
2022-11-20T04:13:56.281Z,77.98
2022-11-20T04:16:26.572Z,79.41
2022-11-20T04:18:56.399Z,80.42
2022-11-20T04:21:28.159Z,79.45
2022-11-20T04:23:58.063Z,78.79
2022-11-20T04:26:28.976Z,79.88
2022-11-20T04:28:58.768Z,78.71
2022-11-20T04:31:32.915Z,80.59
2022-11-20T04:34:03.364Z,79.83
2022-11-20T04:36:34.848Z,80.66
2022-11-20T04:39:06.997Z,79.98
2022-11-20T04:41:38.048Z,79.55
2022-11-20T04:44:08.424Z,80.14
2022-11-20T04:46:39.620Z,79.88
2022-11-20T04:49:09.396Z,79.78
2022-11-20T04:51:39.887Z,80.39
2022-11-20T04:54:09.181Z,77.91
2022-11-20T04:56:38.338Z,78.79
2022-11-20T04:59:07.692Z,80.59
2022-11-20T05:01:36.911Z,80.73
2022-11-20T05:04:06.642Z,79.52
2022-11-20T05:06:36.106Z,78.96
2022-11-20T05:09:06.875Z,78.69
2022-11-20T05:11:35.927Z,79.35
2022-11-20T05:14:05.378Z,78.80
2022-11-20T05:16:37.505Z,78.65
2022-11-20T05:19:06.828Z,79.42
2022-11-20T05:21:35.907Z,78.26
2022-11-20T05:24:08.045Z,77.99
2022-11-20T05:26:37.157Z,78.29
2022-11-20T05:29:06.429Z,78.27
2022-11-20T05:31:35.543Z,79.59
2022-11-20T05:34:04.839Z,78.72
2022-11-20T05:36:34.355Z,79.15
2022-11-20T05:39:05.301Z,79.23
2022-11-20T05:41:36.057Z,78.40
2022-11-20T05:44:05.516Z,79.44
2022-11-20T05:46:34.618Z,77.38
2022-11-20T05:49:04.021Z,78.15
2022-11-20T05:51:33.047Z,77.94
2022-11-20T05:54:02.361Z,78.57
2022-11-20T05:56:33.621Z,78.53
2022-11-20T05:59:03.002Z,78.64
2022-11-20T06:01:32.056Z,78.50
2022-11-20T06:04:01.457Z,79.12
2022-11-20T06:06:31.053Z,78.16
2022-11-20T06:09:00.729Z,77.75
2022-11-20T06:11:31.152Z,76.57
2022-11-20T06:14:00.529Z,77.49
2022-11-20T06:16:29.708Z,77.47
2022-11-20T06:18:59.260Z,77.49
2022-11-20T06:21:28.425Z,77.57
2022-11-20T06:23:57.771Z,77.89
2022-11-20T06:26:28.659Z,77.99
2022-11-20T06:28:59.576Z,76.93
2022-11-20T06:31:29.307Z,77.32
2022-11-20T06:33:58.703Z,77.28
2022-11-20T06:36:28.075Z,77.23
2022-11-20T06:38:57.514Z,76.64
2022-11-20T06:41:27.318Z,75.64
2022-11-20T06:43:58.071Z,76.67
2022-11-20T06:46:27.158Z,75.84
2022-11-20T06:48:56.432Z,76.36
2022-11-20T06:51:25.425Z,76.73
2022-11-20T06:53:55.221Z,75.48
2022-11-20T06:56:24.389Z,76.30
2022-11-20T06:58:53.845Z,77.53
2022-11-20T07:01:24.450Z,75.40
2022-11-20T07:03:54.610Z,77.33
2022-11-20T07:06:23.919Z,76.69
2022-11-20T07:08:54.432Z,76.52
2022-11-20T07:11:24.145Z,77.42
2022-11-20T07:13:53.578Z,77.05
2022-11-20T07:16:24.167Z,77.58
2022-11-20T07:18:53.869Z,76.52
2022-11-20T07:21:22.983Z,76.22
2022-11-20T07:23:52.503Z,76.85
2022-11-20T07:26:21.584Z,76.71
2022-11-20T07:28:50.904Z,76.16
2022-11-20T07:31:20.614Z,76.56
2022-11-20T07:33:51.381Z,76.60
2022-11-20T07:36:20.373Z,76.79
2022-11-20T07:38:49.825Z,76.06
2022-11-20T07:41:18.872Z,76.78
2022-11-20T07:43:48.166Z,76.98
2022-11-20T07:46:17.331Z,76.49
2022-11-20T07:48:46.617Z,74.43
2022-11-20T07:51:17.162Z,74.41
2022-11-20T07:53:46.469Z,74.88
2022-11-20T07:56:15.938Z,75.57
2022-11-20T07:58:45.354Z,74.56
2022-11-20T08:01:14.443Z,74.85
2022-11-20T08:03:43.883Z,76.97
2022-11-20T08:06:12.898Z,74.65
2022-11-20T08:08:43.651Z,74.51
2022-11-20T08:11:30.282Z,73.81
2022-11-20T08:14:14.753Z,75.76
2022-11-20T08:16:45.725Z,75.24
2022-11-20T08:19:15.704Z,75.30
2022-11-20T08:21:45.344Z,75.09
2022-11-20T08:24:16.111Z,74.55
2022-11-20T08:26:45.844Z,74.07
2022-11-20T08:29:15.287Z,74.96
2022-11-20T08:31:44.338Z,75.39
2022-11-20T08:34:33.840Z,76.23
2022-11-20T08:37:04.788Z,75.99
2022-11-20T08:39:35.552Z,76.06
2022-11-20T08:42:04.742Z,75.94
2022-11-20T08:44:34.083Z,75.53
2022-11-20T08:47:03.409Z,75.68
2022-11-20T08:49:32.757Z,75.27
2022-11-20T08:52:01.737Z,75.39
2022-11-20T08:54:31.021Z,76.25
2022-11-20T08:57:01.500Z,75.89
2022-11-20T09:00:03.818Z,76.11
2022-11-20T09:02:21.652Z,76.29
2022-11-20T09:04:51.117Z,76.59
2022-11-20T09:07:20.322Z,75.93
2022-11-20T09:10:09.719Z,75.83
2022-11-20T09:12:41.104Z,76.12
2022-11-20T09:15:12.376Z,76.16
2022-11-20T09:17:41.910Z,76.59
2022-11-20T09:20:12.488Z,76.70
2022-11-20T09:22:42.817Z,75.85
2022-11-20T09:25:12.393Z,76.49
2022-11-20T09:27:44.730Z,76.51
2022-11-20T09:30:15.662Z,75.61
2022-11-20T09:32:45.144Z,76.36
2022-11-20T09:35:15.610Z,75.75
2022-11-20T09:37:44.815Z,75.87
2022-11-20T09:40:22.575Z,76.89
2022-11-20T09:43:00.791Z,76.40
2022-11-20T09:45:49.812Z,74.40
2022-11-20T09:48:34.563Z,74.89
2022-11-20T09:51:15.080Z,74.87
2022-11-20T09:53:56.245Z,75.13
2022-11-20T09:56:26.903Z,74.74
2022-11-20T09:59:01.807Z,75.35
2022-11-20T10:01:35.212Z,74.02
2022-11-20T10:04:08.764Z,74.50
2022-11-20T10:06:49.332Z,74.90
2022-11-20T10:09:30.051Z,75.36
2022-11-20T10:12:08.846Z,75.35
2022-11-20T10:14:49.462Z,76.81
2022-11-20T10:17:36.854Z,75.74
2022-11-20T10:20:18.591Z,75.32
2022-11-20T10:23:13.350Z,75.31
2022-11-20T10:25:51.008Z,73.84
2022-11-20T10:28:29.749Z,75.22
2022-11-20T10:31:04.897Z,73.75
2022-11-20T10:33:57.460Z,74.68
2022-11-20T10:36:31.183Z,73.54
2022-11-20T10:39:06.604Z,73.99
2022-11-20T10:41:42.260Z,74.80
2022-11-20T10:44:36.713Z,72.57
2022-11-20T10:47:14.831Z,74.52
2022-11-20T10:49:45.452Z,75.12
2022-11-20T10:52:22.321Z,73.48
2022-11-20T10:55:01.085Z,75.21
2022-11-20T10:57:50.403Z,74.86
2022-11-20T11:00:19.960Z,75.45
2022-11-20T11:02:52.755Z,74.77
2022-11-20T11:05:38.561Z,73.64
2022-11-20T11:08:14.372Z,74.17
2022-11-20T11:10:50.142Z,75.27
2022-11-20T11:13:28.509Z,74.49
2022-11-20T11:15:59.205Z,74.99
2022-11-20T11:18:32.761Z,73.97
2022-11-20T11:21:04.394Z,73.42
2022-11-20T11:23:37.341Z,73.40
2022-11-20T11:26:08.661Z,74.73
2022-11-20T11:28:37.814Z,74.08
2022-11-20T11:31:07.458Z,75.01
2022-11-20T11:33:38.041Z,73.97
2022-11-20T11:36:21.806Z,74.71
2022-11-20T11:38:55.021Z,73.85
2022-11-20T11:41:33.130Z,75.19
2022-11-20T11:44:34.900Z,75.17
2022-11-20T11:47:07.314Z,75.24
2022-11-20T11:49:37.834Z,75.07
2022-11-20T11:52:14.975Z,74.10
2022-11-20T11:54:50.397Z,74.67
2022-11-20T11:57:28.640Z,75.40
2022-11-20T12:00:04.681Z,74.93
2022-11-20T12:02:43.350Z,75.37
2022-11-20T12:05:21.859Z,75.21
2022-11-20T12:07:55.927Z,75.26
2022-11-20T12:10:36.192Z,74.55
2022-11-20T12:13:17.992Z,74.47
2022-11-20T12:15:49.550Z,76.02
2022-11-20T12:18:22.011Z,75.34
2022-11-20T12:21:03.573Z,75.27
2022-11-20T12:23:46.093Z,75.94
2022-11-20T12:26:28.095Z,76.35
2022-11-20T12:29:09.877Z,76.67
2022-11-20T12:31:56.444Z,76.71
2022-11-20T12:34:46.258Z,76.45
2022-11-20T12:37:27.194Z,76.44
2022-11-20T12:40:00.284Z,75.74
2022-11-20T12:43:02.214Z,77.09
2022-11-20T12:45:44.378Z,77.41
2022-11-20T12:48:43.558Z,77.64
2022-11-20T12:51:39.214Z,77.53
2022-11-20T12:54:40.119Z,77.76
2022-11-20T12:57:17.760Z,77.16
2022-11-20T13:00:04.475Z,77.14
2022-11-20T13:02:46.776Z,76.89
2022-11-20T13:05:24.004Z,76.94
2022-11-20T13:07:55.708Z,76.24
2022-11-20T13:10:33.875Z,76.39
2022-11-20T13:13:11.138Z,76.46
2022-11-20T13:15:52.835Z,75.73
2022-11-20T13:18:22.504Z,75.87
2022-11-20T13:20:52.310Z,76.56
2022-11-20T13:23:28.514Z,77.49
2022-11-20T13:26:19.566Z,77.45
2022-11-20T13:28:50.766Z,77.35
2022-11-20T13:31:33.544Z,77.92
2022-11-20T13:34:05.243Z,78.52
2022-11-20T13:36:36.044Z,77.49
2022-11-20T13:39:06.118Z,76.75
2022-11-20T13:41:39.075Z,77.02
2022-11-20T13:44:15.665Z,78.32
2022-11-20T13:46:46.991Z,78.85
2022-11-20T13:49:25.730Z,79.25
2022-11-20T13:52:05.506Z,78.79
2022-11-20T13:54:53.724Z,78.54
2022-11-20T13:57:50.332Z,79.27
2022-11-20T14:00:21.683Z,80.38
2022-11-20T14:03:04.592Z,80.06
2022-11-20T14:05:37.254Z,79.96
2022-11-20T14:08:08.711Z,80.63
2022-11-20T14:10:40.268Z,79.92
2022-11-20T14:13:21.957Z,80.11
2022-11-20T14:15:59.971Z,80.39
2022-11-20T14:18:29.865Z,80.31
2022-11-20T14:21:02.411Z,80.83
2022-11-20T14:23:32.018Z,81.93
2022-11-20T14:26:01.610Z,81.64
2022-11-20T14:28:33.644Z,81.79
2022-11-20T14:31:03.214Z,81.76
2022-11-20T14:33:36.064Z,81.20
2022-11-20T14:36:05.792Z,82.36
2022-11-20T14:38:35.230Z,81.24
2022-11-20T14:41:18.353Z,82.44
2022-11-20T14:43:52.046Z,82.45
2022-11-20T14:46:21.766Z,81.81
2022-11-20T14:48:54.445Z,81.67
2022-11-20T14:51:31.721Z,81.38
2022-11-20T14:54:11.946Z,82.02
2022-11-20T14:56:41.326Z,82.54
2022-11-20T14:59:12.463Z,82.87
2022-11-20T15:01:41.837Z,82.82
2022-11-20T15:04:13.230Z,82.35
2022-11-20T15:06:53.147Z,82.53
2022-11-20T15:09:22.218Z,82.23
2022-11-20T15:11:57.856Z,82.36
2022-11-20T15:14:30.167Z,82.31
2022-11-20T15:16:59.845Z,82.42
2022-11-20T15:19:29.892Z,81.99
2022-11-20T15:21:59.165Z,82.79
2022-11-20T15:24:28.235Z,82.33
2022-11-20T15:26:57.854Z,82.37
2022-11-20T15:29:28.590Z,82.04
2022-11-20T15:31:58.117Z,82.21
2022-11-20T15:34:29.062Z,82.38
2022-11-20T15:36:58.370Z,82.49
2022-11-20T15:39:27.441Z,82.15
2022-11-20T15:41:57.142Z,82.57
2022-11-20T15:44:27.778Z,82.09
2022-11-20T15:46:57.183Z,81.83
2022-11-20T15:49:26.619Z,82.21
2022-11-20T15:51:55.943Z,82.57
2022-11-20T15:54:26.025Z,81.82
2022-11-20T15:56:55.614Z,82.03
2022-11-20T15:59:24.752Z,82.36
2022-11-20T16:01:55.550Z,81.42
2022-11-20T16:04:25.109Z,81.05
2022-11-20T16:06:54.598Z,81.22
2022-11-20T16:09:23.670Z,82.30
2022-11-20T16:11:53.086Z,83.23
2022-11-20T16:14:39.708Z,82.45
2022-11-20T16:17:10.541Z,81.79
2022-11-20T16:19:39.768Z,81.46
2022-11-20T16:22:09.120Z,81.59
2022-11-20T16:24:38.573Z,81.88
2022-11-20T16:27:07.959Z,82.24
2022-11-20T16:29:37.085Z,82.10
2022-11-20T16:32:06.582Z,81.49
2022-11-20T16:34:36.998Z,82.20
2022-11-20T16:37:06.523Z,81.41
2022-11-20T16:39:35.619Z,81.85
2022-11-20T16:42:06.656Z,81.89
2022-11-20T16:44:35.966Z,82.06
2022-11-20T16:47:06.614Z,81.58
2022-11-20T16:49:37.029Z,81.76
2022-11-20T16:52:06.709Z,82.05
2022-11-20T16:54:36.084Z,81.51
2022-11-20T16:57:05.950Z,81.54
2022-11-20T16:59:35.169Z,81.82
2022-11-20T17:02:04.652Z,81.07
2022-11-20T17:04:34.131Z,81.69
2022-11-20T17:07:08.109Z,81.87
2022-11-20T17:09:37.606Z,82.79
2022-11-20T17:12:07.596Z,82.10
2022-11-20T17:14:36.987Z,81.75
2022-11-20T17:17:06.376Z,81.51
2022-11-20T17:19:35.471Z,81.99
2022-11-20T17:22:06.169Z,81.66
2022-11-20T17:24:35.461Z,80.75
2022-11-20T17:27:05.022Z,81.03
2022-11-20T17:29:39.184Z,80.94
2022-11-20T17:32:11.249Z,82.21
2022-11-20T17:34:40.295Z,82.45
2022-11-20T17:37:11.007Z,82.17
2022-11-20T17:39:40.982Z,81.40
2022-11-20T17:42:29.714Z,80.74
2022-11-20T17:44:59.800Z,80.32
2022-11-20T17:47:29.212Z,81.51
2022-11-20T17:49:58.224Z,81.20
2022-11-20T17:52:29.011Z,82.29
2022-11-20T17:54:58.067Z,81.72
2022-11-20T17:57:44.668Z,81.21
2022-11-20T18:00:16.537Z,81.48
2022-11-20T18:02:46.073Z,81.86
2022-11-20T18:05:16.388Z,81.61
2022-11-20T18:07:47.971Z,81.37
2022-11-20T18:10:17.224Z,81.72
2022-11-20T18:12:46.569Z,81.18
2022-11-20T18:15:15.829Z,81.52
2022-11-20T18:17:47.596Z,81.60
2022-11-20T18:20:38.242Z,82.51
2022-11-20T18:23:20.443Z,82.34
2022-11-20T18:25:49.436Z,82.23
2022-11-20T18:28:20.298Z,82.77
2022-11-20T18:30:50.396Z,82.91
2022-11-20T18:33:27.061Z,82.58
2022-11-20T18:35:57.413Z,82.98
2022-11-20T18:38:28.127Z,82.91
2022-11-20T18:41:02.017Z,82.53
2022-11-20T18:43:50.647Z,82.45
2022-11-20T18:46:22.215Z,81.95
2022-11-20T18:48:53.769Z,82.06
2022-11-20T18:51:22.876Z,81.74
2022-11-20T18:53:53.624Z,82.19
2022-11-20T18:56:22.721Z,82.20
2022-11-20T18:58:52.104Z,82.23
2022-11-20T19:01:21.183Z,81.56
2022-11-20T19:03:50.619Z,81.69
2022-11-20T19:06:19.931Z,81.74
2022-11-20T19:08:49.419Z,82.01
2022-11-20T19:11:19.984Z,81.89
2022-11-20T19:13:49.329Z,81.92
2022-11-20T19:16:22.702Z,81.86
2022-11-20T19:18:53.221Z,81.52
2022-11-20T19:21:25.140Z,82.09
2022-11-20T19:23:56.724Z,82.00
2022-11-20T19:26:28.305Z,82.68
2022-11-20T19:28:58.758Z,82.77
2022-11-20T19:31:28.927Z,82.54
2022-11-20T19:34:00.277Z,82.73
2022-11-20T19:36:31.421Z,82.80
2022-11-20T19:39:01.246Z,82.43
2022-11-20T19:41:33.329Z,82.76
2022-11-20T19:44:04.862Z,83.07
2022-11-20T19:46:35.181Z,82.56
2022-11-20T19:49:05.544Z,82.31
2022-11-20T19:51:36.254Z,82.14
2022-11-20T19:54:06.220Z,82.26
2022-11-20T19:56:36.650Z,82.04
2022-11-20T19:59:06.053Z,82.06
2022-11-20T20:01:36.371Z,82.18
2022-11-20T20:04:07.047Z,82.63
2022-11-20T20:06:38.789Z,82.28
2022-11-20T20:09:11.139Z,82.09
2022-11-20T20:11:45.667Z,82.41
2022-11-20T20:14:18.317Z,82.85
2022-11-20T20:16:47.542Z,82.32
2022-11-20T20:19:17.739Z,81.71
2022-11-20T20:21:47.927Z,81.64
2022-11-20T20:24:17.382Z,81.75
2022-11-20T20:26:47.775Z,81.91
2022-11-20T20:29:20.621Z,81.57
2022-11-20T20:31:49.780Z,81.90
2022-11-20T20:34:19.272Z,81.63
2022-11-20T20:36:49.179Z,82.22
2022-11-20T20:39:19.844Z,82.05
2022-11-20T20:41:50.345Z,81.60
2022-11-20T20:44:37.093Z,80.84
2022-11-20T20:47:06.300Z,80.70
2022-11-20T20:49:35.879Z,81.43
2022-11-20T20:52:05.082Z,81.62
2022-11-20T20:54:34.759Z,82.04
2022-11-20T20:57:05.229Z,81.57
2022-11-20T20:59:34.615Z,81.66
2022-11-20T21:02:03.832Z,81.67
2022-11-20T21:04:33.923Z,81.79
2022-11-20T21:07:03.228Z,81.21
2022-11-20T21:09:32.654Z,81.25
2022-11-20T21:12:01.691Z,81.60
2022-11-20T21:14:32.552Z,81.53
2022-11-20T21:17:01.639Z,80.71
2022-11-20T21:19:30.961Z,80.74
2022-11-20T21:21:59.018Z,80.34
2022-11-20T21:24:29.133Z,79.88
2022-11-20T21:26:59.250Z,80.42
2022-11-20T21:29:29.777Z,80.24
2022-11-20T21:32:00.854Z,80.32
2022-11-20T21:34:30.232Z,79.77
2022-11-20T21:36:59.385Z,79.35
2022-11-20T21:39:30.352Z,79.35
2022-11-20T21:41:59.502Z,78.77
2022-11-20T21:44:31.357Z,79.75
2022-11-20T21:47:02.441Z,79.28
2022-11-20T21:49:34.174Z,78.87
2022-11-20T21:52:03.418Z,79.19
2022-11-20T21:54:35.789Z,79.67
2022-11-20T21:57:04.966Z,79.69
2022-11-20T21:59:34.397Z,79.51
2022-11-20T22:02:04.920Z,79.58
2022-11-20T22:04:34.449Z,79.61
2022-11-20T22:07:03.694Z,79.46
2022-11-20T22:09:33.186Z,79.63
2022-11-20T22:12:02.275Z,80.11
2022-11-20T22:14:31.352Z,80.28
2022-11-20T22:17:00.666Z,79.79
2022-11-20T22:19:31.548Z,79.38
2022-11-20T22:22:00.696Z,79.15
2022-11-20T22:24:30.055Z,79.05
2022-11-20T22:26:59.512Z,78.52
2022-11-20T22:29:28.798Z,78.92
2022-11-20T22:31:57.845Z,79.21
2022-11-20T22:34:27.422Z,78.99
2022-11-20T22:36:58.014Z,78.57
2022-11-20T22:39:27.430Z,79.09
2022-11-20T22:41:56.475Z,79.78
2022-11-20T22:44:26.117Z,79.54
2022-11-20T22:46:55.320Z,79.65
2022-11-20T22:49:24.817Z,79.50
2022-11-20T22:51:53.801Z,79.86
2022-11-20T22:54:24.775Z,79.80
2022-11-20T22:56:53.972Z,79.44
2022-11-20T22:59:23.421Z,78.92
2022-11-20T23:01:52.540Z,78.26
2022-11-20T23:04:22.395Z,79.02
2022-11-20T23:06:51.779Z,78.55
2022-11-20T23:09:21.149Z,78.46
2022-11-20T23:11:51.696Z,78.78
2022-11-20T23:14:26.359Z,78.62
2022-11-20T23:16:57.307Z,78.94
2022-11-20T23:19:29.608Z,79.85
2022-11-20T23:21:58.647Z,79.68
2022-11-20T23:24:28.418Z,79.61
2022-11-20T23:26:59.235Z,79.77
2022-11-20T23:29:28.630Z,80.13
2022-11-20T23:31:57.613Z,79.81
2022-11-20T23:34:27.097Z,80.33
2022-11-20T23:36:56.400Z,79.86
2022-11-20T23:39:25.930Z,79.89
2022-11-20T23:41:55.032Z,79.53
2022-11-20T23:44:26.288Z,79.91
2022-11-20T23:46:55.499Z,79.61
2022-11-20T23:49:24.789Z,78.84
2022-11-20T23:51:53.861Z,78.64
2022-11-20T23:54:23.181Z,78.64
2022-11-20T23:56:52.477Z,78.25
2022-11-20T23:59:22.026Z,78.50
